createdAt,value
2019-03-16T00:00:27.088Z,3.10
2019-03-16T00:02:53.661Z,2.50
2019-03-16T00:05:20.234Z,2.10
2019-03-16T00:07:46.861Z,2.10
2019-03-16T00:10:13.432Z,2.40
2019-03-16T00:12:40.047Z,2.45
2019-03-16T00:15:06.628Z,2.72
2019-03-16T00:17:33.261Z,3.33
2019-03-16T00:19:59.830Z,3.30
2019-03-16T00:22:26.438Z,2.83
2019-03-16T00:24:53.186Z,2.67
2019-03-16T00:27:19.791Z,2.77
2019-03-16T00:29:46.361Z,2.90
2019-03-16T00:32:13.910Z,2.52
2019-03-16T00:34:40.601Z,2.10
2019-03-16T00:37:07.170Z,1.20
2019-03-16T00:39:33.776Z,2.05
2019-03-16T00:42:00.355Z,1.92
2019-03-16T00:44:26.932Z,1.60
2019-03-16T00:46:53.505Z,1.22
2019-03-16T00:49:20.095Z,1.60
2019-03-16T00:51:46.661Z,1.37
2019-03-16T00:54:13.242Z,1.30
2019-03-16T00:56:39.811Z,1.40
2019-03-16T00:59:06.387Z,1.42
2019-03-16T01:01:32.966Z,1.30
2019-03-16T01:03:59.547Z,1.10
2019-03-16T01:06:26.117Z,1.05
2019-03-16T01:08:52.687Z,1.25
2019-03-16T01:11:19.282Z,1.40
2019-03-16T01:13:45.874Z,1.10
2019-03-16T01:16:12.440Z,1.42
2019-03-16T01:18:39.036Z,1.40
2019-03-16T01:21:05.615Z,1.22
2019-03-16T01:23:32.232Z,1.07
2019-03-16T01:25:58.808Z,1.65
2019-03-16T01:28:27.030Z,1.32
2019-03-16T01:30:53.604Z,1.77
2019-03-16T01:33:20.315Z,1.40
2019-03-16T01:35:46.887Z,1.30
2019-03-16T01:38:13.493Z,1.10
2019-03-16T01:40:40.067Z,0.93
2019-03-16T01:43:06.659Z,1.12
2019-03-16T01:45:33.312Z,1.50
2019-03-16T01:47:59.905Z,0.90
2019-03-16T01:50:26.470Z,0.98
2019-03-16T01:52:53.117Z,0.70
2019-03-16T01:55:19.735Z,0.90
2019-03-16T01:57:46.338Z,1.05
2019-03-16T02:00:12.899Z,1.32
2019-03-16T02:02:39.555Z,0.80
2019-03-16T02:05:06.129Z,1.20
2019-03-16T02:07:32.713Z,1.12
2019-03-16T02:09:59.283Z,1.15
2019-03-16T02:12:25.875Z,0.68
2019-03-16T02:14:52.441Z,1.30
2019-03-16T02:17:19.033Z,0.95
2019-03-16T02:19:45.599Z,0.93
2019-03-16T02:22:12.264Z,0.82
2019-03-16T02:24:38.870Z,1.20
2019-03-16T02:27:05.447Z,0.90
2019-03-16T02:29:32.031Z,0.98
2019-03-16T02:31:58.609Z,1.00
2019-03-16T02:34:25.231Z,1.20
2019-03-16T02:36:51.851Z,1.02
2019-03-16T02:39:18.537Z,1.20
2019-03-16T02:41:45.109Z,1.12
2019-03-16T02:44:11.789Z,1.02
2019-03-16T02:46:38.363Z,0.72
2019-03-16T02:49:04.944Z,0.90
2019-03-16T02:51:31.539Z,1.10
2019-03-16T02:53:58.208Z,0.90
2019-03-16T02:56:24.781Z,1.00
2019-03-16T02:58:51.408Z,1.40
2019-03-16T03:01:17.981Z,1.07
2019-03-16T03:03:45.287Z,1.15
2019-03-16T03:06:11.877Z,1.32
2019-03-16T03:08:38.575Z,1.30
2019-03-16T03:11:05.138Z,1.32
2019-03-16T03:13:31.744Z,1.35
2019-03-16T03:15:58.319Z,1.27
2019-03-16T03:18:24.922Z,1.30
2019-03-16T03:20:51.498Z,1.22
2019-03-16T03:23:18.248Z,1.17
2019-03-16T03:25:44.861Z,1.00
2019-03-16T03:28:11.430Z,1.10
2019-03-16T03:30:38.005Z,1.52
2019-03-16T03:33:04.591Z,1.35
2019-03-16T03:35:31.156Z,1.40
2019-03-16T03:37:57.714Z,1.35
2019-03-16T03:40:24.299Z,1.72
2019-03-16T03:42:50.871Z,1.40
2019-03-16T03:45:17.444Z,1.35
2019-03-16T03:47:44.026Z,1.32
2019-03-16T03:50:10.615Z,0.95
2019-03-16T03:52:37.213Z,3.02
2019-03-16T03:55:03.848Z,1.60
2019-03-16T03:57:30.426Z,2.77
2019-03-16T03:59:57.006Z,4.42
2019-03-16T04:02:23.590Z,1.53
2019-03-16T04:04:50.159Z,1.43
2019-03-16T04:07:20.086Z,1.50
2019-03-16T04:09:45.075Z,1.40
2019-03-16T04:12:11.640Z,0.93
2019-03-16T04:14:38.233Z,0.83
2019-03-16T04:17:04.813Z,1.00
2019-03-16T04:19:31.385Z,1.50
2019-03-16T04:21:57.956Z,1.23
2019-03-16T04:24:24.572Z,0.90
2019-03-16T04:26:51.147Z,1.20
2019-03-16T04:29:17.741Z,1.30
2019-03-16T04:31:44.318Z,0.90
2019-03-16T04:34:10.900Z,1.00
2019-03-16T04:36:37.480Z,1.33
2019-03-16T04:39:04.088Z,2.00
2019-03-16T04:41:30.663Z,2.70
2019-03-16T04:43:57.279Z,1.63
2019-03-16T04:46:23.845Z,1.90
2019-03-16T04:48:50.495Z,1.93
2019-03-16T04:51:17.075Z,2.30
2019-03-16T04:53:43.641Z,2.00
2019-03-16T04:56:10.210Z,3.00
2019-03-16T04:58:36.785Z,2.60
2019-03-16T05:01:03.359Z,2.67
2019-03-16T05:03:29.928Z,2.67
2019-03-16T05:05:56.510Z,2.00
2019-03-16T05:08:23.067Z,1.87
2019-03-16T05:10:49.642Z,1.70
2019-03-16T05:13:16.205Z,1.97
2019-03-16T05:15:42.781Z,2.00
2019-03-16T05:18:09.352Z,2.07
2019-03-16T05:20:35.918Z,1.67
2019-03-16T05:23:02.495Z,3.00
2019-03-16T05:25:29.089Z,5.47
2019-03-16T05:27:55.666Z,8.00
2019-03-16T05:30:22.277Z,6.13
2019-03-16T05:32:48.845Z,5.40
2019-03-16T05:35:15.456Z,5.77
2019-03-16T05:37:42.034Z,6.43
2019-03-16T05:40:08.644Z,5.43
2019-03-16T05:42:35.217Z,6.60
2019-03-16T05:45:01.812Z,5.90
2019-03-16T05:47:28.379Z,12.57
2019-03-16T05:49:54.970Z,11.40
2019-03-16T05:52:21.565Z,12.17
2019-03-16T05:54:48.186Z,11.38
2019-03-16T05:57:14.752Z,7.03
2019-03-16T05:59:41.347Z,5.70
2019-03-16T06:02:07.922Z,3.63
2019-03-16T06:04:34.515Z,3.47
2019-03-16T06:07:01.095Z,2.80
2019-03-16T06:09:27.708Z,3.30
2019-03-16T06:11:54.302Z,4.37
2019-03-16T06:14:20.870Z,6.47
2019-03-16T06:16:47.447Z,5.60
2019-03-16T06:19:14.026Z,6.50
2019-03-16T06:21:40.590Z,6.67
2019-03-16T06:24:07.226Z,6.58
2019-03-16T06:26:33.807Z,5.05
2019-03-16T06:29:00.457Z,4.25
2019-03-16T06:31:27.029Z,4.75
2019-03-16T06:33:53.680Z,4.92
2019-03-16T06:36:20.257Z,2.77
2019-03-16T06:38:46.834Z,3.10
2019-03-16T06:41:13.402Z,4.60
2019-03-16T06:43:39.981Z,4.28
2019-03-16T06:46:06.546Z,3.35
2019-03-16T06:48:33.125Z,5.70
2019-03-16T06:50:59.691Z,5.80
2019-03-16T06:53:26.266Z,4.28
2019-03-16T06:55:52.839Z,4.25
2019-03-16T06:58:19.419Z,3.47
2019-03-16T07:00:45.996Z,3.58
2019-03-16T07:03:13.813Z,2.27
2019-03-16T07:05:40.415Z,3.30
2019-03-16T07:08:06.986Z,3.02
2019-03-16T07:10:33.583Z,2.55
2019-03-16T07:13:00.156Z,2.33
2019-03-16T07:15:26.726Z,1.90
2019-03-16T07:17:53.374Z,1.90
2019-03-16T07:20:19.976Z,4.90
2019-03-16T07:22:46.548Z,4.67
2019-03-16T07:25:13.161Z,4.95
2019-03-16T07:27:39.723Z,4.85
2019-03-16T07:30:06.333Z,4.15
2019-03-16T07:32:32.896Z,3.60
2019-03-16T07:34:59.515Z,2.95
2019-03-16T07:37:26.086Z,4.03
2019-03-16T07:39:53.775Z,3.83
2019-03-16T07:42:20.342Z,2.27
2019-03-16T07:44:47.027Z,3.05
2019-03-16T07:47:13.640Z,2.77
2019-03-16T07:49:40.208Z,2.90
2019-03-16T07:52:06.787Z,2.90
2019-03-16T07:54:33.400Z,3.25
2019-03-16T07:56:59.953Z,4.62
2019-03-16T07:59:26.531Z,3.67
2019-03-16T08:01:53.145Z,5.03
2019-03-16T08:04:19.714Z,2.92
2019-03-16T08:06:46.312Z,3.90
2019-03-16T08:09:12.900Z,4.17
2019-03-16T08:11:39.668Z,4.03
2019-03-16T08:14:06.242Z,3.75
2019-03-16T08:16:32.852Z,3.35
2019-03-16T08:18:59.430Z,2.25
2019-03-16T08:21:26.040Z,1.98
2019-03-16T08:23:53.853Z,2.50
2019-03-16T08:26:20.621Z,2.30
2019-03-16T08:28:47.184Z,3.20
2019-03-16T08:31:13.837Z,2.47
2019-03-16T08:33:40.419Z,3.58
2019-03-16T08:36:07.032Z,3.50
2019-03-16T08:38:33.633Z,2.47
2019-03-16T08:41:00.251Z,1.87
2019-03-16T08:43:26.829Z,3.33
2019-03-16T08:45:53.419Z,2.08
2019-03-16T08:48:23.069Z,2.00
2019-03-16T08:50:48.357Z,3.27
2019-03-16T08:53:14.929Z,4.47
2019-03-16T08:55:41.547Z,3.33
2019-03-16T08:58:08.164Z,3.75
2019-03-16T09:00:34.768Z,2.77
2019-03-16T09:03:01.342Z,3.00
2019-03-16T09:05:27.912Z,4.03
2019-03-16T09:07:54.492Z,4.37
2019-03-16T09:10:21.054Z,4.58
2019-03-16T09:12:54.994Z,2.35
2019-03-16T09:15:15.936Z,2.33
2019-03-16T09:17:42.511Z,3.45
2019-03-16T09:20:09.089Z,2.67
2019-03-16T09:22:35.669Z,3.02
2019-03-16T09:25:02.275Z,2.95
2019-03-16T09:27:31.327Z,3.55
2019-03-16T09:29:57.150Z,3.62
2019-03-16T09:32:23.719Z,4.75
2019-03-16T09:34:50.393Z,3.22
2019-03-16T09:37:16.957Z,3.02
2019-03-16T09:39:43.529Z,2.77
2019-03-16T09:42:10.110Z,3.02
2019-03-16T09:44:36.687Z,2.92
2019-03-16T09:47:03.261Z,2.40
2019-03-16T09:49:29.835Z,3.77
2019-03-16T09:51:56.419Z,4.28
2019-03-16T09:54:22.995Z,5.20
2019-03-16T09:57:00.500Z,5.62
2019-03-16T09:59:17.866Z,3.87
2019-03-16T10:01:44.441Z,3.35
2019-03-16T10:04:11.094Z,3.25
2019-03-16T10:06:37.685Z,2.58
2019-03-16T10:09:04.255Z,2.72
2019-03-16T10:11:30.871Z,3.50
2019-03-16T10:13:57.447Z,5.87
2019-03-16T10:16:24.035Z,3.67
2019-03-16T10:18:50.611Z,3.30
2019-03-16T10:21:18.833Z,4.47
2019-03-16T10:23:45.667Z,2.92
2019-03-16T10:26:12.272Z,2.85
2019-03-16T10:28:43.656Z,2.55
2019-03-16T10:31:07.168Z,3.02
2019-03-16T10:33:33.797Z,4.53
2019-03-16T10:36:00.384Z,4.78
2019-03-16T10:38:26.963Z,3.62
2019-03-16T10:40:53.539Z,2.98
2019-03-16T10:43:20.118Z,3.87
2019-03-16T10:45:46.680Z,2.67
2019-03-16T10:48:13.317Z,2.35
2019-03-16T10:50:40.487Z,3.58
2019-03-16T10:53:07.474Z,2.70
2019-03-16T10:55:34.088Z,2.37
2019-03-16T10:58:00.696Z,3.42
2019-03-16T11:00:27.274Z,2.72
2019-03-16T11:02:53.898Z,2.90
2019-03-16T11:05:20.477Z,5.25
2019-03-16T11:07:47.316Z,4.22
2019-03-16T11:10:13.898Z,4.17
2019-03-16T11:12:40.501Z,3.85
2019-03-16T11:15:07.155Z,2.85
2019-03-16T11:17:33.835Z,45.63
2019-03-16T11:20:00.446Z,4.85
2019-03-16T11:22:27.084Z,5.47
2019-03-16T11:24:53.658Z,3.05
2019-03-16T11:27:20.267Z,3.00
2019-03-16T11:29:46.847Z,5.47
2019-03-16T11:32:15.411Z,5.67
2019-03-16T11:34:41.740Z,4.20
2019-03-16T11:37:08.340Z,4.10
2019-03-16T11:39:34.914Z,4.78
2019-03-16T11:42:01.541Z,5.60
2019-03-16T11:44:28.110Z,5.25
2019-03-16T11:46:54.699Z,5.37
2019-03-16T11:49:21.268Z,5.53
2019-03-16T11:51:47.859Z,6.50
2019-03-16T11:54:14.433Z,4.33
2019-03-16T11:56:41.040Z,4.22
2019-03-16T11:59:07.705Z,2.47
2019-03-16T12:01:34.387Z,3.00
2019-03-16T12:04:00.968Z,3.05
2019-03-16T12:06:27.540Z,1.80
2019-03-16T12:08:54.124Z,2.50
2019-03-16T12:11:20.703Z,3.95
2019-03-16T12:13:47.274Z,2.70
2019-03-16T12:16:13.855Z,3.65
2019-03-16T12:18:40.429Z,3.33
2019-03-16T12:21:07.001Z,4.53
2019-03-16T12:23:34.596Z,4.45
2019-03-16T12:26:01.175Z,3.40
2019-03-16T12:28:27.757Z,3.00
2019-03-16T12:30:54.335Z,4.62
2019-03-16T12:33:20.906Z,3.08
2019-03-16T12:35:47.492Z,3.80
2019-03-16T12:38:14.064Z,3.72
2019-03-16T12:40:40.650Z,3.83
2019-03-16T12:43:07.230Z,5.17
2019-03-16T12:45:33.831Z,5.25
2019-03-16T12:48:00.394Z,4.75
2019-03-16T12:50:27.046Z,5.97
2019-03-16T12:52:53.632Z,5.65
2019-03-16T12:55:20.204Z,5.33
2019-03-16T12:57:48.139Z,3.85
2019-03-16T13:00:15.143Z,3.47
2019-03-16T13:02:41.762Z,5.70
2019-03-16T13:05:08.364Z,6.42
2019-03-16T13:07:34.953Z,5.62
2019-03-16T13:10:01.535Z,5.92
2019-03-16T13:12:28.152Z,4.33
2019-03-16T13:14:54.738Z,4.00
2019-03-16T13:17:21.382Z,3.15
2019-03-16T13:19:47.949Z,2.90
2019-03-16T13:22:14.549Z,3.45
2019-03-16T13:24:41.121Z,3.20
2019-03-16T13:27:08.737Z,4.03
2019-03-16T13:29:37.561Z,5.00
2019-03-16T13:32:04.134Z,3.60
2019-03-16T13:34:30.709Z,3.87
2019-03-16T13:36:57.298Z,4.10
2019-03-16T13:39:23.877Z,4.97
2019-03-16T13:41:50.534Z,5.00
2019-03-16T13:44:17.108Z,6.00
2019-03-16T13:46:43.684Z,5.20
2019-03-16T13:49:10.263Z,5.90
2019-03-16T13:51:36.837Z,4.28
2019-03-16T13:54:03.432Z,4.00
2019-03-16T13:56:30.001Z,5.17
2019-03-16T13:58:56.761Z,4.17
2019-03-16T14:01:23.344Z,5.53
2019-03-16T14:03:49.925Z,4.22
2019-03-16T14:06:16.505Z,4.70
2019-03-16T14:08:43.087Z,5.70
2019-03-16T14:11:09.681Z,7.40
2019-03-16T14:13:36.250Z,6.75
2019-03-16T14:16:03.214Z,6.50
2019-03-16T14:18:29.795Z,5.10
2019-03-16T14:20:56.422Z,4.92
2019-03-16T14:23:23.076Z,4.08
2019-03-16T14:25:49.669Z,3.77
2019-03-16T14:28:16.621Z,4.15
2019-03-16T14:30:45.198Z,4.78
2019-03-16T14:33:11.483Z,5.08
2019-03-16T14:35:38.066Z,3.10
2019-03-16T14:38:04.636Z,4.47
2019-03-16T14:40:31.239Z,5.62
2019-03-16T14:42:57.870Z,5.92
2019-03-16T14:45:24.722Z,4.60
2019-03-16T14:47:51.304Z,6.87
2019-03-16T14:50:17.879Z,6.22
2019-03-16T14:52:44.461Z,7.95
2019-03-16T14:55:11.036Z,6.42
2019-03-16T14:57:37.661Z,8.08
2019-03-16T15:00:04.251Z,8.73
2019-03-16T15:02:30.828Z,8.28
2019-03-16T15:04:57.463Z,5.60
2019-03-16T15:07:24.082Z,7.10
2019-03-16T15:09:50.813Z,6.50
2019-03-16T15:12:17.393Z,7.22
2019-03-16T15:14:44.003Z,9.58
2019-03-16T15:17:10.577Z,8.70
2019-03-16T15:19:37.194Z,7.78
2019-03-16T15:22:03.765Z,4.90
2019-03-16T15:24:30.378Z,7.60
2019-03-16T15:26:56.951Z,9.88
2019-03-16T15:29:23.575Z,8.55
2019-03-16T15:31:50.147Z,8.95
2019-03-16T15:34:18.631Z,12.90
2019-03-16T15:36:45.235Z,13.80
2019-03-16T15:39:11.904Z,10.03
2019-03-16T15:41:38.510Z,12.78
2019-03-16T15:44:05.197Z,12.07
2019-03-16T15:46:31.757Z,14.83
2019-03-16T15:48:58.368Z,14.50
2019-03-16T15:51:24.951Z,17.90
2019-03-16T15:53:51.560Z,15.78
2019-03-16T15:56:18.219Z,15.90
2019-03-16T15:58:45.014Z,14.15
2019-03-16T16:01:11.596Z,14.18
2019-03-16T16:03:38.219Z,13.75
2019-03-16T16:06:06.868Z,14.45
2019-03-16T16:08:33.550Z,13.75
2019-03-16T16:11:01.436Z,13.13
2019-03-16T16:13:28.270Z,13.05
2019-03-16T16:15:54.850Z,14.38
2019-03-16T16:18:22.443Z,15.50
2019-03-16T16:20:49.063Z,16.27
2019-03-16T16:23:17.489Z,12.33
2019-03-16T16:25:44.062Z,11.43
2019-03-16T16:28:10.870Z,12.45
2019-03-16T16:30:37.611Z,10.72
2019-03-16T16:33:04.182Z,8.78
2019-03-16T16:35:30.771Z,9.55
2019-03-16T16:37:57.354Z,10.13
2019-03-16T16:40:23.930Z,8.00
2019-03-16T16:42:50.499Z,9.30
2019-03-16T16:45:17.083Z,9.53
2019-03-16T16:47:43.660Z,11.97
2019-03-16T16:50:10.257Z,13.22
2019-03-16T16:52:36.824Z,12.35
2019-03-16T16:55:03.425Z,14.95
2019-03-16T16:57:30.010Z,15.05
2019-03-16T16:59:58.424Z,18.82
2019-03-16T17:02:24.926Z,23.27
2019-03-16T17:04:51.529Z,29.48
2019-03-16T17:07:18.098Z,23.10
2019-03-16T17:09:44.702Z,24.77
2019-03-16T17:12:11.280Z,26.12
2019-03-16T17:14:37.924Z,30.37
2019-03-16T17:17:04.587Z,32.03
2019-03-16T17:19:31.256Z,38.23
2019-03-16T17:21:58.902Z,43.48
2019-03-16T17:24:25.514Z,44.53
2019-03-16T17:26:52.084Z,40.25
2019-03-16T17:29:18.781Z,39.50
2019-03-16T17:31:45.366Z,34.45
2019-03-16T17:34:11.985Z,31.00
2019-03-16T17:36:38.563Z,19.60
2019-03-16T17:39:05.173Z,17.12
2019-03-16T17:41:31.744Z,16.02
2019-03-16T17:43:58.374Z,15.75
2019-03-16T17:46:24.944Z,12.88
2019-03-16T17:48:51.549Z,12.15
2019-03-16T17:51:18.123Z,12.78
2019-03-16T17:53:46.898Z,10.68
2019-03-16T17:56:13.034Z,10.13
2019-03-16T17:58:39.606Z,10.55
2019-03-16T18:01:06.179Z,10.68
2019-03-16T18:03:32.747Z,10.43
2019-03-16T18:05:59.324Z,11.43
2019-03-16T18:08:26.073Z,9.35
2019-03-16T18:10:52.638Z,10.20
2019-03-16T18:13:19.222Z,10.18
2019-03-16T18:15:45.804Z,9.60
2019-03-16T18:18:12.373Z,9.68
2019-03-16T18:20:38.957Z,8.75
2019-03-16T18:23:05.570Z,10.03
2019-03-16T18:25:32.195Z,8.53
2019-03-16T18:27:58.776Z,8.50
2019-03-16T18:30:25.416Z,7.78
2019-03-16T18:32:52.006Z,8.45
2019-03-16T18:35:18.579Z,7.53
2019-03-16T18:37:45.158Z,7.95
2019-03-16T18:40:11.782Z,8.38
2019-03-16T18:42:38.342Z,7.60
2019-03-16T18:45:05.997Z,9.20
2019-03-16T18:47:32.630Z,9.25
2019-03-16T18:49:59.298Z,9.55
2019-03-16T18:52:25.900Z,9.50
2019-03-16T18:54:52.499Z,12.03
2019-03-16T18:57:19.077Z,9.40
2019-03-16T18:59:45.703Z,10.58
2019-03-16T19:02:20.582Z,9.33
2019-03-16T19:04:40.626Z,9.60
2019-03-16T19:07:07.288Z,8.73
2019-03-16T19:09:34.016Z,7.67
2019-03-16T19:12:00.601Z,7.95
2019-03-16T19:14:27.209Z,8.38
2019-03-16T19:16:53.773Z,7.28
2019-03-16T19:19:20.375Z,7.47
2019-03-16T19:21:47.277Z,8.23
2019-03-16T19:24:15.741Z,8.28
2019-03-16T19:26:42.318Z,7.35
2019-03-16T19:29:08.888Z,8.05
2019-03-16T19:31:35.457Z,6.70
2019-03-16T19:34:02.036Z,7.08
2019-03-16T19:36:28.614Z,6.90
2019-03-16T19:38:55.182Z,6.87
2019-03-16T19:41:22.738Z,8.88
2019-03-16T19:43:50.433Z,7.33
2019-03-16T19:46:17.192Z,8.65
2019-03-16T19:48:43.770Z,7.70
2019-03-16T19:51:10.349Z,6.20
2019-03-16T19:53:36.940Z,7.12
2019-03-16T19:56:03.493Z,7.00
2019-03-16T19:58:30.163Z,8.53
2019-03-16T20:00:56.847Z,9.50
2019-03-16T20:03:23.421Z,7.33
2019-03-16T20:05:49.995Z,10.20
2019-03-16T20:08:16.594Z,9.68
2019-03-16T20:10:43.153Z,9.93
2019-03-16T20:13:09.724Z,11.88
2019-03-16T20:15:36.389Z,11.00
2019-03-16T20:18:02.958Z,10.58
2019-03-16T20:20:29.547Z,10.58
2019-03-16T20:22:56.106Z,10.18
2019-03-16T20:25:22.690Z,9.65
2019-03-16T20:27:49.258Z,10.13
2019-03-16T20:30:15.875Z,10.68
2019-03-16T20:32:42.447Z,9.75
2019-03-16T20:35:09.053Z,9.18
2019-03-16T20:37:35.620Z,10.28
2019-03-16T20:40:02.217Z,10.60
2019-03-16T20:42:28.781Z,9.03
2019-03-16T20:44:55.386Z,10.60
2019-03-16T20:47:21.954Z,11.50
2019-03-16T20:49:51.971Z,9.90
2019-03-16T20:52:18.569Z,9.93
2019-03-16T20:54:45.143Z,9.25
2019-03-16T20:57:11.720Z,9.73
2019-03-16T20:59:38.296Z,10.10
2019-03-16T21:02:04.876Z,13.35
2019-03-16T21:04:31.454Z,15.30
2019-03-16T21:06:58.027Z,18.87
2019-03-16T21:09:24.637Z,21.42
2019-03-16T21:11:51.211Z,21.37
2019-03-16T21:14:17.794Z,20.80
2019-03-16T21:16:44.349Z,16.80
2019-03-16T21:19:10.921Z,19.50
2019-03-16T21:21:37.506Z,19.55
2019-03-16T21:24:04.076Z,19.05
2019-03-16T21:26:30.655Z,21.65
2019-03-16T21:28:57.233Z,14.83
2019-03-16T21:31:23.805Z,12.33
2019-03-16T21:33:50.373Z,13.20
2019-03-16T21:36:16.989Z,13.05
2019-03-16T21:38:43.574Z,12.95
2019-03-16T21:41:10.183Z,11.40
2019-03-16T21:43:36.757Z,12.95
2019-03-16T21:46:03.376Z,11.88
2019-03-16T21:48:29.957Z,11.28
2019-03-16T21:50:56.557Z,11.48
2019-03-16T21:53:32.313Z,10.38
2019-03-16T21:55:58.989Z,10.72
2019-03-16T21:58:25.554Z,10.48
2019-03-16T22:00:53.183Z,10.70
2019-03-16T22:03:19.751Z,11.50
2019-03-16T22:05:46.342Z,9.48
2019-03-16T22:08:12.918Z,10.30
2019-03-16T22:10:39.521Z,8.93
2019-03-16T22:13:06.101Z,9.53
2019-03-16T22:15:32.724Z,10.18
2019-03-16T22:17:59.297Z,9.85
2019-03-16T22:20:25.907Z,11.40
2019-03-16T22:22:52.491Z,10.28
2019-03-16T22:25:19.061Z,10.90
2019-03-16T22:27:45.676Z,8.90
2019-03-16T22:30:12.241Z,9.25
2019-03-16T22:32:38.813Z,9.35
2019-03-16T22:35:08.900Z,8.93
2019-03-16T22:37:34.809Z,7.42
2019-03-16T22:40:01.388Z,7.30
2019-03-16T22:42:27.955Z,7.85
2019-03-16T22:44:54.605Z,7.35
2019-03-16T22:47:21.188Z,8.33
2019-03-16T22:49:47.754Z,8.13
2019-03-16T22:52:14.316Z,7.90
2019-03-16T22:54:40.903Z,8.20
2019-03-16T22:57:07.467Z,7.12
2019-03-16T22:59:34.089Z,8.43
2019-03-16T23:02:00.664Z,7.95
2019-03-16T23:04:27.230Z,6.70
2019-03-16T23:06:53.811Z,7.72
2019-03-16T23:09:20.387Z,9.33
2019-03-16T23:11:46.967Z,8.50
2019-03-16T23:14:13.544Z,7.45
2019-03-16T23:16:40.119Z,7.00
2019-03-16T23:19:06.694Z,8.55
2019-03-16T23:21:33.345Z,7.90
2019-03-16T23:23:59.999Z,7.35
2019-03-16T23:26:37.745Z,8.13
2019-03-16T23:28:54.913Z,7.28
2019-03-16T23:31:21.528Z,6.87
2019-03-16T23:33:48.097Z,7.30
2019-03-16T23:36:14.813Z,6.92
2019-03-16T23:38:41.389Z,6.53
2019-03-16T23:41:07.980Z,6.37
2019-03-16T23:43:34.560Z,6.78
2019-03-16T23:46:01.135Z,6.90
2019-03-16T23:48:27.711Z,6.80
2019-03-16T23:50:54.361Z,5.92
2019-03-16T23:53:20.942Z,6.10
2019-03-16T23:55:47.514Z,6.10
2019-03-16T23:58:14.094Z,7.47
